This is the latest recevied weather packets stored in our database for station/object WP3OF-5. If no packets are shown the sender has not sent any weather packets the latest 10 day(s).
| Time | Temp. | Humidity | Pressure | Rain* | Wind** | Luminosity | Snow |
|---|---|---|---|---|---|---|---|
| 1778020799 | 26.67° C | 88% | 1016.6 hPa | 0 mm | - | - | - |
| 1778020496 | 27.22° C | 86% | 1016.8 hPa | 0 mm | - | - | - |
| 1778020192 | 27.78° C | 84% | 1016.5 hPa | 0 mm | - | - | - |
| 1778019889 | 28.33° C | 82% | 1016.7 hPa | 0 mm | - | - | - |
| 1778019584 | 28.33° C | 80% | 1016.5 hPa | 0 mm | - | - | - |
| 1778019282 | 28.89° C | 80% | 1016.5 hPa | 0 mm | - | - | - |
| 1778018979 | 28.89° C | 78% | 1016.5 hPa | 0 mm | - | - | - |
| 1778018676 | 28.33° C | 79% | 1016.3 hPa | 0 mm | - | - | - |
| 1778018373 | 28.33° C | 78% | 1016.4 hPa | 0 mm | - | - | - |
| 1778018071 | 28.33° C | 79% | 1016.3 hPa | 0 mm | - | - | - |
| 1778017769 | 28.33° C | 79% | 1016.2 hPa | 0 mm | - | - | - |
| 1778017467 | 28.33° C | 81% | 1016.4 hPa | 0 mm | - | - | - |
| 1778017164 | 28.89° C | 78% | 1016.1 hPa | 0 mm | - | - | - |
| 1778016861 | 29.44° C | 77% | 1016.1 hPa | 0 mm | - | - | - |
| 1778016557 | 29.44° C | 76% | 1016 hPa | 0 mm | - | - | - |
| 1778016254 | 29.44° C | 78% | 1016 hPa | 0 mm | - | - | - |
| 1778015951 | 28.89° C | 78% | 1016 hPa | 0 mm | - | - | - |
| 1778015649 | 28.89° C | 79% | 1016 hPa | 0 mm | - | - | - |
| 1778015344 | 28.89° C | 79% | 1016.3 hPa | 0 mm | - | - | - |
| 1778015042 | 29.44° C | 77% | 1015.8 hPa | 0 mm | - | - | - |
| 1778014739 | 30° C | 75% | 1015.9 hPa | 0 mm | - | - | - |
| 1778014437 | 31.11° C | 72% | 1015.8 hPa | 0 mm | - | - | - |
| 1778014133 | 31.67° C | 70% | 1015.8 hPa | 0 mm | - | - | - |
| 1778013831 | 31.67° C | 69% | 1015.5 hPa | 0 mm | - | - | - |
| 1778013528 | 32.22° C | 68% | 1015.4 hPa | 0 mm | - | - | - |
* Rain latest hour (hover to see other rain measurements)
** Current wind speed in m/s (hover to see current wind gust speed)